Relevés horaires Matro (Suisse)


Relevés horaires à Matro - Vendredi 26 Avr. 2019
Heure UTC1 Température [°C] Vent [km/h] Hum. [%] Pres.4 [hPa] Visi. [Km] Nébu. [octa] Préc.5 [mm] Cond.
2m. Res. Ros. Dir.2 Vit. Moy. Raf.3
23:00 -2.8 -10.1 -8.5 NNO 29.6 -- 42.6 65 850(0.3/3h) -- -- -- --
22:00 -2.7 -9.9 -10.0 NNO 29.6 -- 44.4 57 850(0.6/3h) -- -- -- --
21:00 -2.3 -9.8 -9.8 NNO 33.3 -- 51.9 56 850(0.8/3h) -- -- -- --
20:00 -2.3 -9.8 -9.9 NNO 33.3 -- 48.2 56 850(0.8/3h) -- -- -- --
19:00 -1.9 -10 -11.7 NNO 40.7 -- 51.9 47 850(0.7/3h) -- -- -- --
18:00 -1.7 -8.4 -11.8 NNO 27.8 -- 57.4 46 850(0.7/3h) -- -- -- --
17:00 -1.5 -7.7 -10.7 NNO 24.1 -- 37.0 49 850(0.5/3h) -- -- -- --
16:00 -1.7 -8 -11.4 NNO 24.1 -- 38.9 47 850(0.1/3h) -- -- -- --
15:00 -1.7 -8.6 -9.5 NNO 29.6 -- 57.4 55 850(0.0/3h) -- -- -- --
14:00 -2.8 -11.4 -5.4 NNO 42.6 -- 57.4 82 850(0.5/3h) -- -- -- --
13:00 -2.9 -10.4 -4.2 NNO 31.5 -- 46.3 91 850(1.9/3h) -- -- -- --
12:00 -2.5 -9.9 -3.4 NNO 31.5 -- 101.9 94 850(2.4/3h) -- -- -- --
11:00 -1.8 -9 -2.0 SO 31.5 -- 77.8 99 850(1.9/3h) -- -- -- --
10:00 0.1 -7.9 -0.8 SSE 48.2 -- 96.3 94 850(1.4/3h) -- -- -- --
09:00 0.8 -8.1 0.8 SSE 68.5 -- 101.9 100 850(0.6/3h) -- -- -- --
08:00 1.2 -7.3 1.1 SSE 63.0 -- 90.7 99 850(0.5/3h) -- -- -- --
07:00 1.5 -7 1.3 SSE 64.8 -- 101.9 99 850(-0.1/3h) -- -- -- --
06:00 1.5 -7.1 1.5 SSE 68.5 -- 109.3 100 850(-0.1/3h) -- -- -- --
05:00 1.5 -7.2 1.4 SSE 70.4 -- 98.2 99 850(-0.9/3h) -- -- -- --
04:00 1.3 -8 1.1 SSE 81.5 -- 109.3 99 850(-1.6/3h) -- -- -- --
03:00 1.7 -7.5 1.7 SSE 83.3 -- 109.3 100 850(-1.6/3h) -- -- -- --
02:00 1.9 -7.2 1.8 SSE 83.3 -- 109.3 99 850(-1.8/3h) -- -- -- --
01:00 1.8 -7.1 1.8 SSE 75.9 -- 109.3 100 850(-2.0/3h) -- -- -- --
00:00 2.3 -6.7 2.0 SE 83.3 -- 107.4 98 850(-2.6/3h) -- -- -- --

1 Coordinated Universal Time. Actuellement il est 20:00 locale et 18:00 UTC.

2 Le vent souffle depuis la direction indiquée vers la direction oposée.

3 Les rafales max. sont disponible 40 min après l'heure du relevé.

4 Pour les stations d'altitude (plus de 600m) le géopotentiel du niveau le plus proche de la pression obligatoire est indiqué.

5 Les stations disposant d'un diffuseur peuvent indiquer "trace". Cela signifie que des précipitations ont touchés le sol mais que la quantité est inférieure à 0.1 mm.

Copyright

Les données affichées sur cette page sont la propriété exclusive de Météo Suisse.

Récapitulatif de la journée
Température [°C] Vent [km/h] Ensoleillement4 [h] Precipitations totale5 [mm] Pression [Hpa]
Min1 Max.2 Moy.3 Max. Min Max.
0.7 1.6 0 109.3 0 h 54 min 0 850.0 850.0

1 Température minimale relevée entre 18:00 UTC la veille et 18:00 UTC le jour donné.

2 Température maximale relevée entre 06:00 UTC le jour donné et 06:00 UTC le lendemain.

3 Vent moyen de la journée basé sur les relevés horaires.

4 Ensoleillement en heures relevé entre 06:00 UTC la veille et 06:00 UTC le jour donné.

5 Précipitations totales tombées entre 06:00 UTC la jour donné et 06:00 UTC le lendemain.

Graphiques horaires